sensor_id;sensor_type;location;lat;lon;timestamp;P1;durP1;ratioP1;P2;durP2;ratioP2
22963;SDS011;11648;49.306;6.934;2022-12-18T00:01:17;24.37;;;11.97;;
22963;SDS011;11648;49.306;6.934;2022-12-18T00:03:52;24.97;;;12.20;;
22963;SDS011;11648;49.306;6.934;2022-12-18T00:06:20;25.00;;;13.20;;
22963;SDS011;11648;49.306;6.934;2022-12-18T00:08:48;25.67;;;12.00;;
22963;SDS011;11648;49.306;6.934;2022-12-18T00:11:16;26.73;;;12.93;;
22963;SDS011;11648;49.306;6.934;2022-12-18T00:13:45;27.07;;;12.60;;
22963;SDS011;11648;49.306;6.934;2022-12-18T00:16:19;24.70;;;13.07;;
22963;SDS011;11648;49.306;6.934;2022-12-18T00:18:48;23.27;;;12.77;;
22963;SDS011;11648;49.306;6.934;2022-12-18T00:21:16;24.87;;;12.57;;
22963;SDS011;11648;49.306;6.934;2022-12-18T00:23:43;24.43;;;11.47;;
22963;SDS011;11648;49.306;6.934;2022-12-18T00:26:12;25.10;;;12.67;;
22963;SDS011;11648;49.306;6.934;2022-12-18T00:28:42;26.70;;;12.70;;
22963;SDS011;11648;49.306;6.934;2022-12-18T00:31:13;27.47;;;12.57;;
22963;SDS011;11648;49.306;6.934;2022-12-18T00:33:44;24.47;;;12.63;;
22963;SDS011;11648;49.306;6.934;2022-12-18T00:36:15;24.00;;;12.70;;
22963;SDS011;11648;49.306;6.934;2022-12-18T00:38:44;27.03;;;12.33;;
22963;SDS011;11648;49.306;6.934;2022-12-18T00:41:12;26.47;;;13.17;;
22963;SDS011;11648;49.306;6.934;2022-12-18T00:43:40;30.00;;;13.37;;
22963;SDS011;11648;49.306;6.934;2022-12-18T00:46:07;25.53;;;13.47;;
22963;SDS011;11648;49.306;6.934;2022-12-18T00:48:35;28.50;;;13.57;;
22963;SDS011;11648;49.306;6.934;2022-12-18T00:51:01;27.63;;;13.13;;
22963;SDS011;11648;49.306;6.934;2022-12-18T00:53:28;24.93;;;12.87;;
22963;SDS011;11648;49.306;6.934;2022-12-18T00:55:55;25.67;;;13.10;;
22963;SDS011;11648;49.306;6.934;2022-12-18T00:58:22;26.90;;;13.73;;
22963;SDS011;11648;49.306;6.934;2022-12-18T01:00:48;29.90;;;13.60;;
22963;SDS011;11648;49.306;6.934;2022-12-18T01:03:15;28.27;;;14.33;;
22963;SDS011;11648;49.306;6.934;2022-12-18T01:05:43;31.60;;;13.87;;
22963;SDS011;11648;49.306;6.934;2022-12-18T01:08:10;28.17;;;13.93;;
22963;SDS011;11648;49.306;6.934;2022-12-18T01:10:39;28.77;;;14.37;;
22963;SDS011;11648;49.306;6.934;2022-12-18T01:13:07;28.20;;;14.33;;
22963;SDS011;11648;49.306;6.934;2022-12-18T01:15:34;32.37;;;14.37;;
22963;SDS011;11648;49.306;6.934;2022-12-18T01:18:01;30.53;;;13.67;;
22963;SDS011;11648;49.306;6.934;2022-12-18T01:20:29;29.30;;;13.97;;
22963;SDS011;11648;49.306;6.934;2022-12-18T01:22:58;27.83;;;13.73;;
22963;SDS011;11648;49.306;6.934;2022-12-18T01:25:26;25.17;;;13.30;;
22963;SDS011;11648;49.306;6.934;2022-12-18T01:27:52;28.33;;;13.53;;
22963;SDS011;11648;49.306;6.934;2022-12-18T01:30:19;31.60;;;14.17;;
22963;SDS011;11648;49.306;6.934;2022-12-18T01:32:46;27.73;;;13.67;;
22963;SDS011;11648;49.306;6.934;2022-12-18T01:35:13;29.03;;;13.77;;
22963;SDS011;11648;49.306;6.934;2022-12-18T01:37:39;28.33;;;13.57;;
22963;SDS011;11648;49.306;6.934;2022-12-18T01:40:06;30.87;;;13.53;;
22963;SDS011;11648;49.306;6.934;2022-12-18T01:42:34;27.57;;;13.23;;
22963;SDS011;11648;49.306;6.934;2022-12-18T01:47:56;28.67;;;14.17;;
22963;SDS011;11648;49.306;6.934;2022-12-18T01:50:36;27.43;;;13.60;;
22963;SDS011;11648;49.306;6.934;2022-12-18T01:55:46;29.67;;;13.60;;
22963;SDS011;11648;49.306;6.934;2022-12-18T01:58:18;28.00;;;13.47;;
22963;SDS011;11648;49.306;6.934;2022-12-18T02:00:49;29.47;;;13.90;;
22963;SDS011;11648;49.306;6.934;2022-12-18T02:03:18;29.20;;;14.27;;
22963;SDS011;11648;49.306;6.934;2022-12-18T02:14:04;28.10;;;13.37;;
22963;SDS011;11648;49.306;6.934;2022-12-18T02:28:13;27.70;;;13.73;;
22963;SDS011;11648;49.306;6.934;2022-12-18T02:30:46;26.67;;;13.37;;
22963;SDS011;11648;49.306;6.934;2022-12-18T02:33:15;29.97;;;14.13;;
22963;SDS011;11648;49.306;6.934;2022-12-18T02:35:43;30.43;;;14.70;;
22963;SDS011;11648;49.306;6.934;2022-12-18T02:38:12;26.97;;;14.00;;
22963;SDS011;11648;49.306;6.934;2022-12-18T02:40:43;31.27;;;14.03;;
22963;SDS011;11648;49.306;6.934;2022-12-18T02:43:15;29.73;;;14.03;;
22963;SDS011;11648;49.306;6.934;2022-12-18T02:45:50;26.90;;;13.73;;
22963;SDS011;11648;49.306;6.934;2022-12-18T02:48:22;29.97;;;13.60;;
22963;SDS011;11648;49.306;6.934;2022-12-18T02:53:39;31.30;;;13.57;;
22963;SDS011;11648;49.306;6.934;2022-12-18T02:56:13;29.20;;;13.47;;
22963;SDS011;11648;49.306;6.934;2022-12-18T03:01:43;29.83;;;13.17;;
22963;SDS011;11648;49.306;6.934;2022-12-18T03:04:16;29.07;;;13.40;;
22963;SDS011;11648;49.306;6.934;2022-12-18T03:06:48;28.67;;;12.90;;
22963;SDS011;11648;49.306;6.934;2022-12-18T03:09:21;28.70;;;13.10;;
22963;SDS011;11648;49.306;6.934;2022-12-18T03:11:56;28.23;;;13.03;;
22963;SDS011;11648;49.306;6.934;2022-12-18T03:15:03;30.10;;;12.93;;
22963;SDS011;11648;49.306;6.934;2022-12-18T03:17:32;26.67;;;13.33;;
22963;SDS011;11648;49.306;6.934;2022-12-18T03:20:04;29.73;;;13.10;;
22963;SDS011;11648;49.306;6.934;2022-12-18T03:22:35;27.80;;;13.77;;
22963;SDS011;11648;49.306;6.934;2022-12-18T03:25:06;26.73;;;13.23;;
22963;SDS011;11648;49.306;6.934;2022-12-18T03:27:37;29.63;;;13.63;;
22963;SDS011;11648;49.306;6.934;2022-12-18T03:30:11;28.47;;;13.13;;
22963;SDS011;11648;49.306;6.934;2022-12-18T03:33:24;32.13;;;14.50;;
22963;SDS011;11648;49.306;6.934;2022-12-18T03:35:37;27.60;;;13.17;;
22963;SDS011;11648;49.306;6.934;2022-12-18T03:38:09;32.07;;;13.67;;
22963;SDS011;11648;49.306;6.934;2022-12-18T03:43:16;29.80;;;14.00;;
22963;SDS011;11648;49.306;6.934;2022-12-18T03:51:39;27.37;;;12.90;;
22963;SDS011;11648;49.306;6.934;2022-12-18T03:54:08;30.13;;;13.50;;
22963;SDS011;11648;49.306;6.934;2022-12-18T03:56:44;28.13;;;12.97;;
22963;SDS011;11648;49.306;6.934;2022-12-18T03:59:15;31.07;;;13.77;;
22963;SDS011;11648;49.306;6.934;2022-12-18T04:01:45;32.53;;;13.27;;
22963;SDS011;11648;49.306;6.934;2022-12-18T04:04:14;30.90;;;13.90;;
22963;SDS011;11648;49.306;6.934;2022-12-18T04:06:43;33.07;;;13.47;;
22963;SDS011;11648;49.306;6.934;2022-12-18T04:09:12;29.00;;;13.57;;
22963;SDS011;11648;49.306;6.934;2022-12-18T04:11:43;29.20;;;13.00;;
22963;SDS011;11648;49.306;6.934;2022-12-18T04:14:14;31.90;;;13.33;;
22963;SDS011;11648;49.306;6.934;2022-12-18T04:16:45;31.63;;;13.87;;
22963;SDS011;11648;49.306;6.934;2022-12-18T04:19:15;34.43;;;15.27;;
22963;SDS011;11648;49.306;6.934;2022-12-18T04:21:43;31.40;;;14.00;;
22963;SDS011;11648;49.306;6.934;2022-12-18T04:24:11;29.77;;;14.20;;
22963;SDS011;11648;49.306;6.934;2022-12-18T04:26:44;35.20;;;13.73;;
22963;SDS011;11648;49.306;6.934;2022-12-18T04:29:17;34.57;;;14.23;;
22963;SDS011;11648;49.306;6.934;2022-12-18T04:31:43;30.77;;;13.93;;
22963;SDS011;11648;49.306;6.934;2022-12-18T04:34:10;33.50;;;13.53;;
22963;SDS011;11648;49.306;6.934;2022-12-18T04:36:43;32.97;;;12.63;;
22963;SDS011;11648;49.306;6.934;2022-12-18T04:39:11;31.50;;;13.17;;
22963;SDS011;11648;49.306;6.934;2022-12-18T04:41:39;31.97;;;14.10;;
22963;SDS011;11648;49.306;6.934;2022-12-18T04:44:08;31.13;;;13.80;;
22963;SDS011;11648;49.306;6.934;2022-12-18T04:46:34;34.00;;;13.50;;
22963;SDS011;11648;49.306;6.934;2022-12-18T04:49:01;33.17;;;14.13;;
22963;SDS011;11648;49.306;6.934;2022-12-18T04:51:28;34.37;;;13.80;;
22963;SDS011;11648;49.306;6.934;2022-12-18T04:53:55;31.53;;;14.63;;
22963;SDS011;11648;49.306;6.934;2022-12-18T04:56:21;31.93;;;14.20;;
22963;SDS011;11648;49.306;6.934;2022-12-18T04:58:48;31.97;;;14.00;;
22963;SDS011;11648;49.306;6.934;2022-12-18T05:01:16;35.40;;;14.43;;
22963;SDS011;11648;49.306;6.934;2022-12-18T05:03:44;32.03;;;14.03;;
22963;SDS011;11648;49.306;6.934;2022-12-18T05:06:11;31.93;;;13.10;;
22963;SDS011;11648;49.306;6.934;2022-12-18T05:08:38;34.97;;;15.13;;
22963;SDS011;11648;49.306;6.934;2022-12-18T05:11:08;33.50;;;13.63;;
22963;SDS011;11648;49.306;6.934;2022-12-18T05:13:38;31.63;;;13.33;;
22963;SDS011;11648;49.306;6.934;2022-12-18T05:16:05;28.20;;;13.73;;
22963;SDS011;11648;49.306;6.934;2022-12-18T05:18:33;28.33;;;13.00;;
22963;SDS011;11648;49.306;6.934;2022-12-18T05:21:00;30.37;;;13.73;;
22963;SDS011;11648;49.306;6.934;2022-12-18T05:23:27;30.30;;;14.20;;
22963;SDS011;11648;49.306;6.934;2022-12-18T05:25:58;31.07;;;14.13;;
22963;SDS011;11648;49.306;6.934;2022-12-18T05:28:26;32.37;;;14.40;;
22963;SDS011;11648;49.306;6.934;2022-12-18T05:30:55;33.57;;;13.77;;
22963;SDS011;11648;49.306;6.934;2022-12-18T05:33:25;30.83;;;13.43;;
22963;SDS011;11648;49.306;6.934;2022-12-18T05:35:54;31.73;;;13.90;;
22963;SDS011;11648;49.306;6.934;2022-12-18T05:38:28;32.40;;;14.03;;
22963;SDS011;11648;49.306;6.934;2022-12-18T05:40:56;34.00;;;14.57;;
22963;SDS011;11648;49.306;6.934;2022-12-18T05:43:24;31.43;;;13.67;;
22963;SDS011;11648;49.306;6.934;2022-12-18T05:45:52;32.00;;;14.07;;
22963;SDS011;11648;49.306;6.934;2022-12-18T05:48:20;34.57;;;13.97;;
22963;SDS011;11648;49.306;6.934;2022-12-18T05:50:47;35.83;;;13.47;;
22963;SDS011;11648;49.306;6.934;2022-12-18T05:53:16;32.00;;;14.37;;
22963;SDS011;11648;49.306;6.934;2022-12-18T05:55:45;31.03;;;13.27;;
22963;SDS011;11648;49.306;6.934;2022-12-18T05:58:13;33.73;;;14.90;;
22963;SDS011;11648;49.306;6.934;2022-12-18T06:00:42;38.50;;;15.60;;
22963;SDS011;11648;49.306;6.934;2022-12-18T06:03:11;40.67;;;19.00;;
22963;SDS011;11648;49.306;6.934;2022-12-18T06:05:39;34.87;;;15.00;;
22963;SDS011;11648;49.306;6.934;2022-12-18T06:08:08;42.97;;;17.37;;
22963;SDS011;11648;49.306;6.934;2022-12-18T06:10:35;30.73;;;13.80;;
22963;SDS011;11648;49.306;6.934;2022-12-18T06:13:02;32.20;;;14.03;;
22963;SDS011;11648;49.306;6.934;2022-12-18T06:15:29;33.90;;;13.93;;
22963;SDS011;11648;49.306;6.934;2022-12-18T06:17:56;35.10;;;14.60;;
22963;SDS011;11648;49.306;6.934;2022-12-18T06:20:22;38.63;;;14.83;;
22963;SDS011;11648;49.306;6.934;2022-12-18T06:22:55;37.70;;;15.00;;
22963;SDS011;11648;49.306;6.934;2022-12-18T06:25:22;31.60;;;13.30;;
22963;SDS011;11648;49.306;6.934;2022-12-18T06:27:49;36.50;;;16.17;;
22963;SDS011;11648;49.306;6.934;2022-12-18T06:30:15;34.57;;;13.77;;
22963;SDS011;11648;49.306;6.934;2022-12-18T06:32:42;30.73;;;14.27;;
22963;SDS011;11648;49.306;6.934;2022-12-18T06:35:09;36.80;;;14.83;;
22963;SDS011;11648;49.306;6.934;2022-12-18T06:37:35;38.87;;;15.90;;
22963;SDS011;11648;49.306;6.934;2022-12-18T06:40:02;34.10;;;13.43;;
22963;SDS011;11648;49.306;6.934;2022-12-18T06:42:29;34.87;;;13.67;;
22963;SDS011;11648;49.306;6.934;2022-12-18T06:44:56;32.93;;;14.03;;
22963;SDS011;11648;49.306;6.934;2022-12-18T06:47:23;30.17;;;13.83;;
22963;SDS011;11648;49.306;6.934;2022-12-18T06:49:49;37.13;;;15.30;;
22963;SDS011;11648;49.306;6.934;2022-12-18T06:52:16;36.60;;;14.90;;
22963;SDS011;11648;49.306;6.934;2022-12-18T06:54:43;33.20;;;14.13;;
22963;SDS011;11648;49.306;6.934;2022-12-18T06:57:12;31.13;;;13.63;;
22963;SDS011;11648;49.306;6.934;2022-12-18T06:59:41;34.30;;;14.20;;
22963;SDS011;11648;49.306;6.934;2022-12-18T07:02:10;33.67;;;13.53;;
22963;SDS011;11648;49.306;6.934;2022-12-18T07:04:39;35.70;;;15.20;;
22963;SDS011;11648;49.306;6.934;2022-12-18T07:07:05;36.33;;;14.53;;
22963;SDS011;11648;49.306;6.934;2022-12-18T07:09:32;37.40;;;14.20;;
22963;SDS011;11648;49.306;6.934;2022-12-18T07:11:59;30.10;;;14.00;;
22963;SDS011;11648;49.306;6.934;2022-12-18T07:14:26;35.40;;;14.60;;
22963;SDS011;11648;49.306;6.934;2022-12-18T07:16:53;31.33;;;13.77;;
22963;SDS011;11648;49.306;6.934;2022-12-18T07:19:20;34.47;;;14.40;;
22963;SDS011;11648;49.306;6.934;2022-12-18T07:21:50;35.97;;;13.77;;
22963;SDS011;11648;49.306;6.934;2022-12-18T07:24:17;36.47;;;13.90;;
22963;SDS011;11648;49.306;6.934;2022-12-18T07:26:47;30.90;;;13.77;;
22963;SDS011;11648;49.306;6.934;2022-12-18T07:29:14;35.23;;;14.50;;
22963;SDS011;11648;49.306;6.934;2022-12-18T07:31:44;32.47;;;13.83;;
22963;SDS011;11648;49.306;6.934;2022-12-18T07:34:11;35.13;;;14.70;;
22963;SDS011;11648;49.306;6.934;2022-12-18T07:36:41;31.07;;;13.77;;
22963;SDS011;11648;49.306;6.934;2022-12-18T07:39:08;31.70;;;13.63;;
22963;SDS011;11648;49.306;6.934;2022-12-18T07:41:37;31.07;;;14.00;;
22963;SDS011;11648;49.306;6.934;2022-12-18T07:44:10;33.33;;;14.30;;
22963;SDS011;11648;49.306;6.934;2022-12-18T07:46:37;34.00;;;15.00;;
22963;SDS011;11648;49.306;6.934;2022-12-18T07:49:04;35.73;;;15.20;;
22963;SDS011;11648;49.306;6.934;2022-12-18T07:51:30;34.63;;;14.60;;
22963;SDS011;11648;49.306;6.934;2022-12-18T07:54:00;32.20;;;14.27;;
22963;SDS011;11648;49.306;6.934;2022-12-18T07:56:26;31.80;;;13.73;;
22963;SDS011;11648;49.306;6.934;2022-12-18T07:58:55;34.07;;;14.23;;
22963;SDS011;11648;49.306;6.934;2022-12-18T08:01:22;36.70;;;14.37;;
22963;SDS011;11648;49.306;6.934;2022-12-18T08:03:50;34.33;;;14.97;;
22963;SDS011;11648;49.306;6.934;2022-12-18T08:06:18;34.00;;;14.93;;
22963;SDS011;11648;49.306;6.934;2022-12-18T08:08:50;31.43;;;13.87;;
22963;SDS011;11648;49.306;6.934;2022-12-18T08:11:18;31.73;;;14.60;;
22963;SDS011;11648;49.306;6.934;2022-12-18T08:13:46;34.90;;;14.27;;
22963;SDS011;11648;49.306;6.934;2022-12-18T08:16:13;31.43;;;14.10;;
22963;SDS011;11648;49.306;6.934;2022-12-18T08:18:40;30.90;;;14.30;;
22963;SDS011;11648;49.306;6.934;2022-12-18T08:21:11;35.90;;;15.03;;
22963;SDS011;11648;49.306;6.934;2022-12-18T08:23:38;31.77;;;14.93;;
22963;SDS011;11648;49.306;6.934;2022-12-18T08:26:09;35.47;;;15.00;;
22963;SDS011;11648;49.306;6.934;2022-12-18T08:28:37;34.13;;;14.43;;
22963;SDS011;11648;49.306;6.934;2022-12-18T08:31:04;33.43;;;13.83;;
22963;SDS011;11648;49.306;6.934;2022-12-18T08:33:31;30.63;;;14.57;;
22963;SDS011;11648;49.306;6.934;2022-12-18T08:35:59;35.10;;;14.53;;
22963;SDS011;11648;49.306;6.934;2022-12-18T08:38:26;30.47;;;14.13;;
22963;SDS011;11648;49.306;6.934;2022-12-18T08:41:00;34.37;;;15.13;;
22963;SDS011;11648;49.306;6.934;2022-12-18T08:43:27;29.17;;;13.50;;
22963;SDS011;11648;49.306;6.934;2022-12-18T08:46:13;29.83;;;13.67;;
22963;SDS011;11648;49.306;6.934;2022-12-18T08:48:43;32.00;;;14.27;;
22963;SDS011;11648;49.306;6.934;2022-12-18T08:51:16;32.43;;;14.13;;
22963;SDS011;11648;49.306;6.934;2022-12-18T08:53:43;28.07;;;12.97;;
22963;SDS011;11648;49.306;6.934;2022-12-18T08:56:11;33.10;;;14.27;;
22963;SDS011;11648;49.306;6.934;2022-12-18T08:58:38;33.10;;;14.57;;
22963;SDS011;11648;49.306;6.934;2022-12-18T09:01:07;32.90;;;14.57;;
22963;SDS011;11648;49.306;6.934;2022-12-18T09:03:36;32.10;;;14.23;;
22963;SDS011;11648;49.306;6.934;2022-12-18T09:06:04;33.23;;;14.73;;
22963;SDS011;11648;49.306;6.934;2022-12-18T09:08:34;32.37;;;15.17;;
22963;SDS011;11648;49.306;6.934;2022-12-18T09:11:01;32.33;;;15.40;;
22963;SDS011;11648;49.306;6.934;2022-12-18T09:13:28;31.80;;;15.57;;
22963;SDS011;11648;49.306;6.934;2022-12-18T09:15:55;31.93;;;16.30;;
22963;SDS011;11648;49.306;6.934;2022-12-18T09:18:22;34.90;;;17.23;;
22963;SDS011;11648;49.306;6.934;2022-12-18T09:20:50;33.93;;;15.63;;
22963;SDS011;11648;49.306;6.934;2022-12-18T09:23:19;36.00;;;17.77;;
22963;SDS011;11648;49.306;6.934;2022-12-18T09:25:46;36.97;;;16.80;;
22963;SDS011;11648;49.306;6.934;2022-12-18T09:28:14;38.47;;;17.43;;
22963;SDS011;11648;49.306;6.934;2022-12-18T09:30:43;38.03;;;18.10;;
22963;SDS011;11648;49.306;6.934;2022-12-18T09:33:12;32.67;;;16.63;;
22963;SDS011;11648;49.306;6.934;2022-12-18T09:35:40;35.70;;;17.40;;
22963;SDS011;11648;49.306;6.934;2022-12-18T09:38:08;38.57;;;16.73;;
22963;SDS011;11648;49.306;6.934;2022-12-18T09:40:43;38.33;;;16.87;;
22963;SDS011;11648;49.306;6.934;2022-12-18T09:43:20;37.87;;;17.57;;
22963;SDS011;11648;49.306;6.934;2022-12-18T09:45:54;36.40;;;16.03;;
22963;SDS011;11648;49.306;6.934;2022-12-18T09:48:34;37.30;;;17.07;;
22963;SDS011;11648;49.306;6.934;2022-12-18T09:51:13;38.67;;;16.93;;
22963;SDS011;11648;49.306;6.934;2022-12-18T09:53:41;39.27;;;17.87;;
22963;SDS011;11648;49.306;6.934;2022-12-18T09:56:15;42.70;;;18.67;;
22963;SDS011;11648;49.306;6.934;2022-12-18T09:59:00;44.37;;;18.83;;
22963;SDS011;11648;49.306;6.934;2022-12-18T10:01:29;40.53;;;18.07;;
22963;SDS011;11648;49.306;6.934;2022-12-18T10:04:09;42.90;;;17.53;;
22963;SDS011;11648;49.306;6.934;2022-12-18T10:06:45;41.57;;;18.33;;
22963;SDS011;11648;49.306;6.934;2022-12-18T10:12:04;44.27;;;18.80;;
22963;SDS011;11648;49.306;6.934;2022-12-18T10:14:47;36.80;;;18.57;;
22963;SDS011;11648;49.306;6.934;2022-12-18T10:25:24;39.23;;;17.90;;
22963;SDS011;11648;49.306;6.934;2022-12-18T10:28:00;53.00;;;22.43;;
22963;SDS011;11648;49.306;6.934;2022-12-18T10:30:35;36.83;;;17.93;;
22963;SDS011;11648;49.306;6.934;2022-12-18T10:33:02;40.90;;;19.07;;
22963;SDS011;11648;49.306;6.934;2022-12-18T10:35:29;39.63;;;19.53;;
22963;SDS011;11648;49.306;6.934;2022-12-18T10:38:00;48.23;;;21.97;;
22963;SDS011;11648;49.306;6.934;2022-12-18T10:40:27;38.77;;;17.87;;
22963;SDS011;11648;49.306;6.934;2022-12-18T10:43:12;40.63;;;18.03;;
22963;SDS011;11648;49.306;6.934;2022-12-18T10:45:41;46.97;;;21.70;;
22963;SDS011;11648;49.306;6.934;2022-12-18T10:48:23;44.27;;;18.70;;
22963;SDS011;11648;49.306;6.934;2022-12-18T10:50:51;44.63;;;19.43;;
22963;SDS011;11648;49.306;6.934;2022-12-18T10:53:38;54.93;;;23.73;;
22963;SDS011;11648;49.306;6.934;2022-12-18T10:56:08;47.43;;;20.23;;
22963;SDS011;11648;49.306;6.934;2022-12-18T10:58:36;40.33;;;19.63;;
22963;SDS011;11648;49.306;6.934;2022-12-18T11:01:12;44.30;;;19.30;;
22963;SDS011;11648;49.306;6.934;2022-12-18T11:03:47;43.23;;;19.57;;
22963;SDS011;11648;49.306;6.934;2022-12-18T11:06:28;38.83;;;19.13;;
22963;SDS011;11648;49.306;6.934;2022-12-18T11:09:02;41.07;;;19.83;;
22963;SDS011;11648;49.306;6.934;2022-12-18T11:11:38;39.67;;;19.20;;
22963;SDS011;11648;49.306;6.934;2022-12-18T11:14:06;37.60;;;18.70;;
22963;SDS011;11648;49.306;6.934;2022-12-18T11:16:44;37.00;;;18.47;;
22963;SDS011;11648;49.306;6.934;2022-12-18T11:19:37;45.17;;;19.13;;
22963;SDS011;11648;49.306;6.934;2022-12-18T11:22:23;42.07;;;20.30;;
22963;SDS011;11648;49.306;6.934;2022-12-18T11:25:01;41.83;;;19.57;;
22963;SDS011;11648;49.306;6.934;2022-12-18T11:27:56;42.27;;;19.83;;
22963;SDS011;11648;49.306;6.934;2022-12-18T11:35:35;40.33;;;19.30;;
22963;SDS011;11648;49.306;6.934;2022-12-18T11:38:10;43.10;;;20.13;;
22963;SDS011;11648;49.306;6.934;2022-12-18T11:40:40;43.77;;;20.80;;
22963;SDS011;11648;49.306;6.934;2022-12-18T11:43:11;42.93;;;20.97;;
22963;SDS011;11648;49.306;6.934;2022-12-18T11:51:19;42.87;;;20.00;;
22963;SDS011;11648;49.306;6.934;2022-12-18T11:53:54;39.37;;;20.67;;
22963;SDS011;11648;49.306;6.934;2022-12-18T11:56:29;41.40;;;19.73;;
22963;SDS011;11648;49.306;6.934;2022-12-18T12:16:15;41.77;;;20.33;;
22963;SDS011;11648;49.306;6.934;2022-12-18T12:24:15;44.03;;;21.60;;
22963;SDS011;11648;49.306;6.934;2022-12-18T12:27:03;44.27;;;21.07;;
22963;SDS011;11648;49.306;6.934;2022-12-18T12:38:43;44.43;;;21.60;;
22963;SDS011;11648;49.306;6.934;2022-12-18T12:41:19;46.93;;;22.63;;
22963;SDS011;11648;49.306;6.934;2022-12-18T12:44:13;46.53;;;21.70;;
22963;SDS011;11648;49.306;6.934;2022-12-18T12:46:42;44.07;;;22.03;;
22963;SDS011;11648;49.306;6.934;2022-12-18T12:49:14;43.00;;;22.27;;
22963;SDS011;11648;49.306;6.934;2022-12-18T12:51:45;45.90;;;21.97;;
22963;SDS011;11648;49.306;6.934;2022-12-18T12:54:17;44.07;;;22.33;;
22963;SDS011;11648;49.306;6.934;2022-12-18T12:57:01;45.33;;;22.10;;
22963;SDS011;11648;49.306;6.934;2022-12-18T12:59:57;42.57;;;21.73;;
22963;SDS011;11648;49.306;6.934;2022-12-18T13:02:44;44.60;;;21.73;;
22963;SDS011;11648;49.306;6.934;2022-12-18T13:08:11;45.83;;;23.33;;
22963;SDS011;11648;49.306;6.934;2022-12-18T13:10:51;47.30;;;22.57;;
22963;SDS011;11648;49.306;6.934;2022-12-18T13:13:48;47.73;;;22.13;;
22963;SDS011;11648;49.306;6.934;2022-12-18T13:16:18;44.97;;;22.57;;
22963;SDS011;11648;49.306;6.934;2022-12-18T13:18:51;43.40;;;22.23;;
22963;SDS011;11648;49.306;6.934;2022-12-18T13:23:55;47.60;;;22.20;;
22963;SDS011;11648;49.306;6.934;2022-12-18T13:29:09;44.70;;;21.63;;
22963;SDS011;11648;49.306;6.934;2022-12-18T13:34:21;47.20;;;22.47;;
22963;SDS011;11648;49.306;6.934;2022-12-18T13:36:54;44.00;;;22.30;;
22963;SDS011;11648;49.306;6.934;2022-12-18T13:39:24;47.63;;;22.67;;
22963;SDS011;11648;49.306;6.934;2022-12-18T13:44:34;47.23;;;23.40;;
22963;SDS011;11648;49.306;6.934;2022-12-18T13:49:53;44.47;;;22.93;;
22963;SDS011;11648;49.306;6.934;2022-12-18T13:52:24;45.53;;;22.97;;
22963;SDS011;11648;49.306;6.934;2022-12-18T13:54:54;45.53;;;23.53;;
22963;SDS011;11648;49.306;6.934;2022-12-18T13:59:57;46.53;;;22.07;;
22963;SDS011;11648;49.306;6.934;2022-12-18T14:02:25;44.20;;;21.77;;
22963;SDS011;11648;49.306;6.934;2022-12-18T14:04:54;44.93;;;23.50;;
22963;SDS011;11648;49.306;6.934;2022-12-18T14:07:25;48.40;;;22.83;;
22963;SDS011;11648;49.306;6.934;2022-12-18T14:09:58;44.93;;;23.67;;
22963;SDS011;11648;49.306;6.934;2022-12-18T14:12:48;51.90;;;26.00;;
22963;SDS011;11648;49.306;6.934;2022-12-18T14:15:36;80.20;;;39.87;;
22963;SDS011;11648;49.306;6.934;2022-12-18T14:20:46;48.10;;;24.30;;
22963;SDS011;11648;49.306;6.934;2022-12-18T14:23:54;47.53;;;23.57;;
22963;SDS011;11648;49.306;6.934;2022-12-18T14:26:19;46.43;;;22.00;;
22963;SDS011;11648;49.306;6.934;2022-12-18T14:28:49;45.47;;;22.63;;
22963;SDS011;11648;49.306;6.934;2022-12-18T14:31:20;46.10;;;23.40;;
22963;SDS011;11648;49.306;6.934;2022-12-18T14:33:50;43.83;;;22.30;;
22963;SDS011;11648;49.306;6.934;2022-12-18T14:36:18;49.00;;;22.60;;
22963;SDS011;11648;49.306;6.934;2022-12-18T14:38:53;45.10;;;21.93;;
22963;SDS011;11648;49.306;6.934;2022-12-18T14:41:22;45.93;;;22.27;;
22963;SDS011;11648;49.306;6.934;2022-12-18T14:43:50;41.60;;;21.20;;
22963;SDS011;11648;49.306;6.934;2022-12-18T14:49:14;45.40;;;22.50;;
22963;SDS011;11648;49.306;6.934;2022-12-18T14:51:56;52.67;;;24.33;;
22963;SDS011;11648;49.306;6.934;2022-12-18T14:54:28;47.30;;;23.23;;
22963;SDS011;11648;49.306;6.934;2022-12-18T14:57:03;53.67;;;25.40;;
22963;SDS011;11648;49.306;6.934;2022-12-18T14:59:47;47.67;;;23.77;;
22963;SDS011;11648;49.306;6.934;2022-12-18T15:02:22;45.30;;;22.60;;
22963;SDS011;11648;49.306;6.934;2022-12-18T15:07:47;43.10;;;21.47;;
22963;SDS011;11648;49.306;6.934;2022-12-18T15:10:17;42.87;;;22.37;;
22963;SDS011;11648;49.306;6.934;2022-12-18T15:23:15;47.77;;;21.70;;
22963;SDS011;11648;49.306;6.934;2022-12-18T15:25:44;41.30;;;21.67;;
22963;SDS011;11648;49.306;6.934;2022-12-18T15:28:26;44.50;;;22.03;;
22963;SDS011;11648;49.306;6.934;2022-12-18T15:31:41;45.17;;;21.90;;
22963;SDS011;11648;49.306;6.934;2022-12-18T15:36:21;45.77;;;21.33;;
22963;SDS011;11648;49.306;6.934;2022-12-18T15:38:53;40.37;;;20.50;;
22963;SDS011;11648;49.306;6.934;2022-12-18T15:41:31;43.97;;;21.40;;
22963;SDS011;11648;49.306;6.934;2022-12-18T15:44:01;45.23;;;21.57;;
22963;SDS011;11648;49.306;6.934;2022-12-18T15:46:29;47.97;;;22.37;;
22963;SDS011;11648;49.306;6.934;2022-12-18T15:48:57;49.40;;;21.30;;
22963;SDS011;11648;49.306;6.934;2022-12-18T15:53:58;44.97;;;21.47;;
22963;SDS011;11648;49.306;6.934;2022-12-18T15:56:27;45.57;;;21.30;;
22963;SDS011;11648;49.306;6.934;2022-12-18T15:59:13;44.17;;;21.83;;
22963;SDS011;11648;49.306;6.934;2022-12-18T16:01:43;47.63;;;21.10;;
22963;SDS011;11648;49.306;6.934;2022-12-18T16:04:13;47.50;;;21.97;;
22963;SDS011;11648;49.306;6.934;2022-12-18T16:06:42;44.73;;;21.40;;
22963;SDS011;11648;49.306;6.934;2022-12-18T16:09:29;45.33;;;21.13;;
22963;SDS011;11648;49.306;6.934;2022-12-18T16:11:55;49.17;;;23.03;;
22963;SDS011;11648;49.306;6.934;2022-12-18T16:14:23;43.23;;;20.87;;
22963;SDS011;11648;49.306;6.934;2022-12-18T16:17:00;46.87;;;22.10;;
22963;SDS011;11648;49.306;6.934;2022-12-18T16:19:31;46.53;;;23.67;;
22963;SDS011;11648;49.306;6.934;2022-12-18T16:21:58;45.97;;;22.57;;
22963;SDS011;11648;49.306;6.934;2022-12-18T16:24:29;50.50;;;23.67;;
22963;SDS011;11648;49.306;6.934;2022-12-18T16:26:57;48.33;;;23.57;;
22963;SDS011;11648;49.306;6.934;2022-12-18T16:29:26;47.10;;;23.43;;
22963;SDS011;11648;49.306;6.934;2022-12-18T16:31:54;48.80;;;22.27;;
22963;SDS011;11648;49.306;6.934;2022-12-18T16:34:26;42.77;;;21.70;;
22963;SDS011;11648;49.306;6.934;2022-12-18T16:36:59;47.57;;;22.43;;
22963;SDS011;11648;49.306;6.934;2022-12-18T16:39:32;44.90;;;21.13;;
22963;SDS011;11648;49.306;6.934;2022-12-18T16:42:01;70.67;;;30.77;;
22963;SDS011;11648;49.306;6.934;2022-12-18T16:44:32;45.87;;;22.27;;
22963;SDS011;11648;49.306;6.934;2022-12-18T16:46:59;56.47;;;27.13;;
22963;SDS011;11648;49.306;6.934;2022-12-18T16:49:28;51.07;;;25.93;;
22963;SDS011;11648;49.306;6.934;2022-12-18T16:51:56;51.47;;;24.37;;
22963;SDS011;11648;49.306;6.934;2022-12-18T16:54:22;80.77;;;37.90;;
22963;SDS011;11648;49.306;6.934;2022-12-18T16:56:50;68.33;;;33.43;;
22963;SDS011;11648;49.306;6.934;2022-12-18T16:59:17;87.27;;;40.10;;